PWSweather.com
Personal Weather Stations
Station Observations

ChardChardGB

Lat: 50.877408, Lon: -2.94964741

Elevation: 341

Station Type: WS3083

http://www.merriott-astro.co.uk/weather/index.htm

Latest ConditionsUpdated 7:50:16 AM GMT Thursday, Jul 18, 2019
Currently Today's Max Today's Min Today's Average
Temperature 63.7°F17.6°C 64.4°F18.0°C 61.2°F16.2°C 62.2°F16.8°C
Dew Point 54.1°F12.3°C 62.6°F17.0°C 54.1°F12.3°C 59.6°F15.3°C
Winds 2.9 mph NNW4.7 kmh NNW 8.3 mph -13.4 kmh - - 4.1 mph 6.6 kmh
Wind Gusts 4.5 mph7.2 kmh 12.1 mph19.5 kmh - -
Humidity 71% 100% 71% 91%
Pressure 29.42 in996.3 mb 29.44 in997.0 mb 29.37 in994.6 mb -
Precipitation - 0.05 in1.3 mm - -
Hour Temp Dew Point Humidity Winds Wind Gusts Pressure Precip Precip Rate Daily Precip Total
07:50 AM 63.7°F17.6°C 54.1°F12.3°C 71% 2.9 mph NNW4.7 kmh NNW 4.5 mph7.2 kmh 29.42 in996.3 mb 0.00 in0.0 mm 0.00 in0.0 mm 0.05 in1.3 mm
07:40 AM 64.0°F17.8°C 55.2°F12.9°C 73% 4.2 mph NW6.8 kmh NW 6.0 mph9.7 kmh 29.42 in996.3 mb 0.00 in0.0 mm 0.00 in0.0 mm 0.05 in1.3 mm
07:30 AM 64.4°F18.0°C 57.8°F14.3°C 79% 2.5 mph NW4.0 kmh NW 4.5 mph7.2 kmh 29.42 in996.3 mb 0.00 in0.0 mm 0.00 in0.0 mm 0.05 in1.3 mm
07:20 AM 63.9°F17.7°C 58.3°F14.6°C 82% 1.8 mph NNW2.9 kmh NNW 3.1 mph5.0 kmh 29.41 in995.9 mb 0.00 in0.0 mm 0.00 in0.0 mm 0.05 in1.3 mm
07:10 AM 63.3°F17.4°C 59.1°F15.1°C 86% 2.2 mph NW3.5 kmh NW 3.8 mph6.1 kmh 29.41 in995.9 mb 0.00 in0.0 mm 0.00 in0.0 mm 0.05 in1.3 mm
07:00 AM 63.0°F17.2°C 59.0°F15.0°C 87% 2.9 mph WNW4.7 kmh WNW 3.8 mph6.1 kmh 29.41 in995.9 mb 0.00 in0.0 mm 0.00 in0.0 mm 0.05 in1.3 mm
06:50 AM 63.0°F17.2°C 59.4°F15.2°C 88% 3.0 mph WNW4.8 kmh WNW 4.5 mph7.2 kmh 29.41 in995.9 mb 0.00 in0.0 mm 0.00 in0.0 mm 0.05 in1.3 mm
06:40 AM 62.6°F17.0°C 59.3°F15.2°C 89% 3.5 mph NW5.6 kmh NW 5.4 mph8.7 kmh 29.41 in995.9 mb 0.00 in0.0 mm 0.00 in0.0 mm 0.05 in1.3 mm
06:30 AM 62.6°F17.0°C 59.6°F15.3°C 90% 2.3 mph W3.7 kmh W 4.5 mph7.2 kmh 29.40 in995.6 mb 0.00 in0.0 mm 0.00 in0.0 mm 0.05 in1.3 mm
06:20 AM 62.2°F16.8°C 59.3°F15.2°C 90% 3.8 mph NW6.1 kmh NW 6.0 mph9.7 kmh 29.41 in995.9 mb 0.00 in0.0 mm 0.00 in0.0 mm 0.05 in1.3 mm
06:10 AM 62.2°F16.8°C 59.6°F15.3°C 91% 3.2 mph NW5.1 kmh NW 4.5 mph7.2 kmh 29.40 in995.6 mb 0.00 in0.0 mm 0.00 in0.0 mm 0.05 in1.3 mm
06:00 AM 62.1°F16.7°C 59.7°F15.4°C 92% 2.9 mph WNW4.7 kmh WNW 4.5 mph7.2 kmh 29.39 in995.3 mb 0.00 in0.0 mm 0.00 in0.0 mm 0.05 in1.3 mm
05:50 AM 61.9°F16.6°C 59.5°F15.3°C 92% 1.7 mph NW2.7 kmh NW 2.2 mph3.5 kmh 29.39 in995.3 mb 0.00 in0.0 mm 0.00 in0.0 mm 0.05 in1.3 mm
05:40 AM 61.7°F16.5°C 59.4°F15.2°C 92% 2.7 mph NW4.3 kmh NW 3.1 mph5.0 kmh 29.39 in995.3 mb 0.00 in0.0 mm 0.00 in0.0 mm 0.05 in1.3 mm
05:30 AM 61.5°F16.4°C 59.2°F15.1°C 92% 3.0 mph WNW4.8 kmh WNW 4.5 mph7.2 kmh 29.39 in995.3 mb 0.00 in0.0 mm 0.00 in0.0 mm 0.05 in1.3 mm
05:20 AM 61.5°F16.4°C 59.2°F15.1°C 92% 1.4 mph WNW2.3 kmh WNW 3.1 mph5.0 kmh 29.39 in995.3 mb 0.00 in0.0 mm 0.00 in0.0 mm 0.05 in1.3 mm
05:10 AM 61.3°F16.3°C 59.3°F15.2°C 93% 2.8 mph NW4.5 kmh NW 3.8 mph6.1 kmh 29.40 in995.6 mb 0.00 in0.0 mm 0.00 in0.0 mm 0.05 in1.3 mm
05:00 AM 61.3°F16.3°C 59.3°F15.2°C 93% 1.9 mph NW3.1 kmh NW 3.8 mph6.1 kmh 29.39 in995.3 mb 0.00 in0.0 mm 0.00 in0.0 mm 0.05 in1.3 mm
04:50 AM 61.2°F16.2°C 59.1°F15.1°C 93% 2.0 mph NW3.2 kmh NW 3.1 mph5.0 kmh 29.39 in995.3 mb 0.00 in0.0 mm 0.00 in0.0 mm 0.05 in1.3 mm
04:40 AM 61.2°F16.2°C 59.4°F15.2°C 94% 1.6 mph WNW2.6 kmh WNW 2.2 mph3.5 kmh 29.39 in995.3 mb 0.00 in0.0 mm 0.00 in0.0 mm 0.05 in1.3 mm
04:30 AM 61.2°F16.2°C 59.7°F15.4°C 95% 1.6 mph NW2.6 kmh NW 3.8 mph6.1 kmh 29.39 in995.3 mb 0.00 in0.0 mm 0.00 in0.0 mm 0.05 in1.3 mm
04:20 AM 61.3°F16.3°C 60.2°F15.7°C 96% 3.7 mph NW6.0 kmh NW 5.4 mph8.7 kmh 29.39 in995.3 mb 0.00 in0.0 mm 0.00 in0.0 mm 0.05 in1.3 mm
04:10 AM 61.5°F16.4°C 60.7°F15.9°C 97% 5.2 mph NW8.4 kmh NW 8.3 mph13.4 kmh 29.39 in995.3 mb 0.01 in0.3 mm 0.00 in0.0 mm 0.05 in1.3 mm
04:00 AM 61.5°F16.4°C 61.5°F16.4°C 100% 3.9 mph NW6.3 kmh NW 7.6 mph12.2 kmh 29.39 in995.3 mb 0.02 in0.5 mm 0.00 in0.0 mm 0.05 in1.3 mm
03:50 AM 61.7°F16.5°C 61.7°F16.5°C 100% 3.8 mph NW6.1 kmh NW 5.4 mph8.7 kmh 29.38 in994.9 mb 0.02 in0.5 mm 0.00 in0.0 mm 0.05 in1.3 mm
03:40 AM 61.9°F16.6°C 61.9°F16.6°C 100% 4.4 mph NW7.1 kmh NW 8.3 mph13.4 kmh 29.38 in994.9 mb 0.02 in0.5 mm 0.00 in0.0 mm 0.05 in1.3 mm
03:30 AM 62.6°F17.0°C 62.6°F17.0°C 100% 2.7 mph WNW4.3 kmh WNW 3.8 mph6.1 kmh 29.38 in994.9 mb 0.02 in0.5 mm 0.00 in0.0 mm 0.05 in1.3 mm
03:20 AM 62.6°F17.0°C 62.6°F17.0°C 100% 2.2 mph WSW3.5 kmh WSW 4.5 mph7.2 kmh 29.37 in994.6 mb 0.04 in1.0 mm 0.00 in0.0 mm 0.05 in1.3 mm
03:10 AM 62.6°F17.0°C 62.6°F17.0°C 100% 2.2 mph WSW3.5 kmh WSW 4.5 mph7.2 kmh 29.37 in994.6 mb 0.04 in1.0 mm 0.12 in3.0 mm 0.04 in1.0 mm
03:00 AM 62.6°F17.0°C 61.8°F16.6°C 97% 4.2 mph S6.8 kmh S 6.0 mph9.7 kmh 29.38 in994.9 mb 0.02 in0.5 mm 0.00 in0.0 mm 0.02 in0.5 mm
02:50 AM 62.6°F17.0°C 61.5°F16.4°C 96% 6.6 mph S10.6 kmh S 12.1 mph19.5 kmh 29.38 in994.9 mb 0.02 in0.5 mm 0.00 in0.0 mm 0.02 in0.5 mm
02:40 AM 62.4°F16.9°C 61.0°F16.1°C 95% 6.4 mph S10.3 kmh S 9.2 mph14.8 kmh 29.38 in994.9 mb 0.02 in0.5 mm 0.00 in0.0 mm 0.02 in0.5 mm
02:30 AM 62.4°F16.9°C 61.0°F16.1°C 95% 5.2 mph SW8.4 kmh SW 7.6 mph12.2 kmh 29.38 in994.9 mb 0.02 in0.5 mm 0.06 in1.5 mm 0.02 in0.5 mm
02:20 AM 62.6°F17.0°C 60.9°F16.1°C 94% 5.5 mph S8.9 kmh S 9.8 mph15.8 kmh 29.39 in995.3 mb 0.01 in0.3 mm 0.06 in1.5 mm 0.01 in0.3 mm
02:10 AM 62.6°F17.0°C 60.9°F16.1°C 94% 5.0 mph S8.0 kmh S 9.2 mph14.8 kmh 29.39 in995.3 mb 0.00 in0.0 mm 0.00 in0.0 mm 0.00 in0.0 mm
02:00 AM 62.6°F17.0°C 60.6°F15.9°C 93% 6.0 mph SSE9.7 kmh SSE 6.9 mph11.1 kmh 29.39 in995.3 mb 0.00 in0.0 mm 0.00 in0.0 mm 0.00 in0.0 mm
01:50 AM 62.4°F16.9°C 60.4°F15.8°C 93% 8.3 mph S13.4 kmh S 9.8 mph15.8 kmh 29.40 in995.6 mb 0.00 in0.0 mm 0.00 in0.0 mm 0.00 in0.0 mm
01:40 AM 62.2°F16.8°C 60.2°F15.7°C 93% 6.0 mph S9.7 kmh S 8.3 mph13.4 kmh 29.40 in995.6 mb 0.00 in0.0 mm 0.00 in0.0 mm 0.00 in0.0 mm
01:30 AM 62.1°F16.7°C 60.0°F15.6°C 93% 6.5 mph SSW10.5 kmh SSW 9.2 mph14.8 kmh 29.40 in995.6 mb 0.00 in0.0 mm 0.00 in0.0 mm 0.00 in0.0 mm
01:20 AM 62.1°F16.7°C 59.7°F15.4°C 92% 7.1 mph S11.4 kmh S 9.2 mph14.8 kmh 29.41 in995.9 mb 0.00 in0.0 mm 0.00 in0.0 mm 0.00 in0.0 mm
01:10 AM 61.9°F16.6°C 59.5°F15.3°C 92% 6.1 mph SSW9.8 kmh SSW 9.8 mph15.8 kmh 29.41 in995.9 mb 0.00 in0.0 mm 0.00 in0.0 mm 0.00 in0.0 mm
01:00 AM 61.7°F16.5°C 59.1°F15.1°C 91% 7.1 mph SSW11.4 kmh SSW 11.4 mph18.3 kmh 29.42 in996.3 mb 0.00 in0.0 mm 0.00 in0.0 mm 0.00 in0.0 mm
12:50 AM 61.5°F16.4°C 58.9°F14.9°C 91% 6.6 mph S10.6 kmh S 9.8 mph15.8 kmh 29.42 in996.3 mb 0.00 in0.0 mm 0.00 in0.0 mm 0.00 in0.0 mm
12:40 AM 61.3°F16.3°C 58.4°F14.7°C 90% 7.2 mph SSW11.6 kmh SSW 9.2 mph14.8 kmh 29.42 in996.3 mb 0.00 in0.0 mm 0.00 in0.0 mm 0.00 in0.0 mm
12:30 AM 61.3°F16.3°C 58.1°F14.5°C 89% 5.7 mph SW9.2 kmh SW 9.8 mph15.8 kmh 29.43 in996.6 mb 0.00 in0.0 mm 0.00 in0.0 mm 0.00 in0.0 mm
12:20 AM 61.3°F16.3°C 57.5°F14.2°C 87% 6.2 mph S10.0 kmh S 7.6 mph12.2 kmh 29.43 in996.6 mb 0.00 in0.0 mm 0.00 in0.0 mm 0.00 in0.0 mm
12:10 AM 61.5°F16.4°C 57.0°F13.9°C 85% 5.0 mph SW8.0 kmh SW 8.3 mph13.4 kmh 29.43 in996.6 mb 0.00 in0.0 mm 0.00 in0.0 mm 0.00 in0.0 mm
12:00 AM 61.7°F16.5°C 56.5°F13.6°C 83% 5.5 mph SSW8.9 kmh SSW 6.9 mph11.1 kmh 29.44 in997.0 mb 0.00 in0.0 mm 0.00 in0.0 mm 0.00 in0.0 mm